Time;durP1;ratioP1;P1;durP2;ratioP2;P2;SDS_P1;SDS_P2;PMS_P1;PMS_P2;Temp;Humidity;BMP_temperature;BMP_pressure;BME280_temperature;BME280_humidity;BME280_pressure;Samples;Min_cycle;Max_cycle;Signal;HPM_P1;HPM_P2
2024/04/11 00:01:29;;;;;;;9.23;4.90;;;;;;;13.24;55.04;101799.44;5228039;26;94780;-81
2024/04/11 00:03:55;;;;;;;8.48;4.22;;;;;;;13.22;55.26;101795.97;5236207;27;94720;-82
2024/04/11 00:06:20;;;;;;;10.82;5.10;;;;;;;13.09;55.40;101783.97;5237165;26;94756;-81
2024/04/11 00:08:46;;;;;;;11.63;4.80;;;;;;;13.01;55.46;101775.34;5179076;27;94655;-81
2024/04/11 00:11:12;;;;;;;14.30;5.40;;;;;;;13.03;55.35;101789.34;5231163;27;94766;-81
2024/04/11 00:13:38;;;;;;;10.80;4.82;;;;;;;13.04;55.25;101793.72;5176158;27;98246;-81
2024/04/11 00:16:04;;;;;;;12.80;5.28;;;;;;;13.06;55.34;101799.81;5235497;27;94611;-81
2024/04/11 00:18:30;;;;;;;10.60;5.53;;;;;;;12.98;55.11;101786.81;5169478;27;94644;-81
2024/04/11 00:20:56;;;;;;;9.68;5.53;;;;;;;13.00;55.37;101800.84;5175686;27;97161;-81
2024/04/11 00:23:22;;;;;;;11.63;5.15;;;;;;;12.94;55.43;101798.31;5229847;27;94836;-81
2024/04/11 00:25:55;;;;;;;8.35;5.97;;;;;;;12.88;55.79;101801.06;5235433;27;94644;-81
2024/04/11 00:28:25;;;;;;;8.68;5.25;;;;;;;12.83;55.70;101790.63;5201600;27;94838;-81
2024/04/11 00:30:52;;;;;;;9.87;5.83;;;;;;;12.85;55.87;101793.22;5225802;27;95167;-81
2024/04/11 00:33:18;;;;;;;9.45;5.18;;;;;;;12.86;55.89;101795.84;5229334;27;94785;-82
2024/04/11 00:35:49;;;;;;;13.57;6.25;;;;;;;12.75;55.80;101792.56;5207268;27;94795;-81
2024/04/11 00:38:19;;;;;;;8.18;5.45;;;;;;;12.80;55.94;101790.69;5201339;27;94652;-81
2024/04/11 00:40:55;;;;;;;13.10;5.97;;;;;;;12.75;56.08;101789.91;5233403;27;97733;-81
2024/04/11 00:43:21;;;;;;;8.90;4.80;;;;;;;12.66;56.22;101769.03;5232021;27;94718;-81
2024/04/11 00:45:47;;;;;;;7.18;5.38;;;;;;;12.66;56.21;101782.19;5225877;27;94822;-81
2024/04/11 00:48:17;;;;;;;9.35;5.05;;;;;;;12.64;56.35;101786.63;5178492;27;94642;-81
2024/04/11 00:50:43;;;;;;;9.02;5.43;;;;;;;12.59;56.63;101784.06;5232665;26;94646;-82
2024/04/11 00:53:10;;;;;;;10.40;5.55;;;;;;;12.49;56.50;101763.22;5231736;26;97391;-82
2024/04/11 00:55:36;;;;;;;18.65;6.15;;;;;;;12.56;56.59;101780.63;5213643;26;94712;-81
2024/04/11 00:58:02;;;;;;;10.20;6.15;;;;;;;12.40;56.39;101746.69;5227658;27;94718;-82
2024/04/11 01:00:28;;;;;;;14.73;6.22;;;;;;;12.51;56.54;101783.38;5208396;27;97754;-82
2024/04/11 01:02:53;;;;;;;10.18;5.72;;;;;;;12.45;56.89;101773.81;5231628;27;94817;-81
2024/04/11 01:05:19;;;;;;;14.00;5.97;;;;;;;12.33;56.89;101766.13;5238042;26;95391;-82
2024/04/11 01:07:54;;;;;;;10.05;5.82;;;;;;;12.38;56.79;101780.06;5211636;27;94628;-81
2024/04/11 01:10:21;;;;;;;9.85;5.70;;;;;;;12.34;57.04;101785.44;5228235;27;94762;-82
2024/04/11 01:12:51;;;;;;;10.45;6.47;;;;;;;12.29;57.11;101782.88;5207244;27;97987;-81
2024/04/11 01:15:17;;;;;;;11.15;6.25;;;;;;;12.18;57.32;101769.91;5232498;27;94741;-82
2024/04/11 01:17:46;;;;;;;13.32;6.80;;;;;;;12.13;57.27;101753.34;5233625;27;93634;-82
2024/04/11 01:20:12;;;;;;;9.20;5.53;;;;;;;12.25;56.88;101783.84;5203003;27;97353;-81
2024/04/11 01:22:40;;;;;;;11.27;6.38;;;;;;;12.08;57.29;101754.31;5202375;27;98412;-81
2024/04/11 01:25:08;;;;;;;13.35;6.63;;;;;;;12.17;57.42;101785.72;5234889;27;95187;-81
2024/04/11 01:27:34;;;;;;;13.48;6.72;;;;;;;12.08;57.32;101773.59;5208175;27;94750;-82
2024/04/11 01:30:02;;;;;;;11.00;6.45;;;;;;;12.06;57.55;101772.75;5236113;26;97552;-81
2024/04/11 01:32:29;;;;;;;11.88;5.38;;;;;;;12.06;57.66;101785.91;5230969;27;97751;-81
2024/04/11 01:34:56;;;;;;;8.13;5.60;;;;;;;11.81;58.03;101745.97;5207900;26;94682;-81
2024/04/11 01:37:23;;;;;;;9.65;6.35;;;;;;;11.71;57.81;101739.97;5208574;27;94666;-81
2024/04/11 01:39:49;;;;;;;9.50;6.60;;;;;;;11.84;58.05;101776.59;5231548;27;94746;-81
2024/04/11 01:42:15;;;;;;;17.85;6.30;;;;;;;11.89;58.29;101796.72;5179268;27;97588;-81
2024/04/11 01:44:40;;;;;;;9.10;5.93;;;;;;;11.84;58.10;101780.13;5208395;27;94587;-81
2024/04/11 01:47:06;;;;;;;9.27;6.35;;;;;;;11.63;57.95;101743.59;5233249;26;93665;-81
2024/04/11 01:49:31;;;;;;;10.07;5.68;;;;;;;11.83;58.16;101788.88;5199342;27;94537;-81
2024/04/11 01:51:57;;;;;;;15.38;6.60;;;;;;;11.82;58.19;101792.41;5234817;26;97949;-81
2024/04/11 01:54:23;;;;;;;8.40;5.90;;;;;;;11.73;58.33;101782.91;5199650;27;94647;-81
2024/04/11 01:56:49;;;;;;;12.40;6.32;;;;;;;11.69;58.41;101781.22;5208472;27;94605;-81
2024/04/11 01:59:16;;;;;;;8.50;5.72;;;;;;;11.55;58.40;101767.41;5231408;26;94778;-81
2024/04/11 02:01:42;;;;;;;11.98;6.95;;;;;;;11.63;58.65;101783.06;5196542;27;94764;-81
2024/04/11 02:04:09;;;;;;;9.00;5.95;;;;;;;11.61;58.79;101796.25;5236844;27;94716;-82
2024/04/11 02:06:39;;;;;;;9.23;5.65;;;;;;;11.46;58.44;101764.91;5176350;27;94819;-81
2024/04/11 02:09:11;;;;;;;15.48;7.25;;;;;;;11.54;58.87;101781.44;5167847;27;97824;-81
2024/04/11 02:11:41;;;;;;;11.52;6.20;;;;;;;11.53;59.00;101792.88;5234869;27;95232;-81
2024/04/11 02:14:07;;;;;;;11.25;6.72;;;;;;;11.52;58.75;101792.00;5208357;27;95270;-81
2024/04/11 02:16:36;;;;;;;10.88;6.25;;;;;;;11.47;58.99;101799.06;5230400;26;96191;-81
2024/04/11 02:19:08;;;;;;;11.55;7.22;;;;;;;11.46;59.09;101804.34;5231037;27;97889;-82
2024/04/11 02:21:43;;;;;;;12.40;6.75;;;;;;;11.36;59.43;101805.38;5206162;27;97979;-81
2024/04/11 02:24:16;;;;;;;11.77;6.55;;;;;;;11.34;59.37;101810.63;5175971;26;94738;-81
2024/04/11 02:26:45;;;;;;;10.43;6.40;;;;;;;11.21;59.41;101791.53;5231584;26;94612;-81
2024/04/11 02:29:11;;;;;;;10.60;6.70;;;;;;;11.30;59.45;101801.06;5208263;27;94607;-81
2024/04/11 02:31:36;;;;;;;9.82;6.70;;;;;;;11.12;59.76;101775.91;5207618;27;95272;-81
2024/04/11 02:34:02;;;;;;;13.50;6.60;;;;;;;11.20;59.83;101802.06;5236098;26;94626;-80
2024/04/11 02:36:29;;;;;;;10.02;6.70;;;;;;;11.12;59.86;101778.53;5208249;26;94641;-81
2024/04/11 02:38:56;;;;;;;11.65;7.68;;;;;;;11.30;59.28;101803.69;5207132;27;94723;-81
2024/04/11 02:41:22;;;;;;;11.50;7.25;;;;;;;11.34;59.30;101805.38;5207056;27;95484;-81
2024/04/11 02:43:48;;;;;;;11.55;6.63;;;;;;;11.26;59.46;101795.00;5236126;27;94730;-81
2024/04/11 02:46:17;;;;;;;9.73;5.82;;;;;;;11.29;59.27;101789.69;5232115;27;94663;-81
2024/04/11 02:48:43;;;;;;;15.13;6.97;;;;;;;11.35;59.61;101801.88;5207829;26;94718;-81
2024/04/11 02:51:09;;;;;;;11.27;5.95;;;;;;;11.25;59.48;101790.59;5180199;27;97477;-81
2024/04/11 02:53:38;;;;;;;13.27;7.40;;;;;;;11.29;59.43;101794.09;5209849;27;94804;-81
2024/04/11 02:56:07;;;;;;;13.68;7.13;;;;;;;11.32;59.39;101801.94;5176427;27;94758;-81
2024/04/11 02:58:36;;;;;;;11.32;7.22;;;;;;;11.26;59.51;101786.25;5202086;27;97445;-81
2024/04/11 03:01:03;;;;;;;13.68;7.78;;;;;;;10.99;59.61;101756.78;5226608;27;94692;-81
2024/04/11 03:03:34;;;;;;;12.15;7.68;;;;;;;11.05;59.81;101769.88;5232090;27;94660;-81
2024/04/11 03:06:13;;;;;;;11.75;7.25;;;;;;;11.07;59.45;101772.47;5209027;27;94771;-81
2024/04/11 03:08:40;;;;;;;10.30;6.75;;;;;;;11.18;59.54;101802.09;5204740;27;97780;-81
2024/04/11 03:11:07;;;;;;;13.02;7.47;;;;;;;11.14;59.46;101786.38;5200968;26;95441;-81
2024/04/11 03:13:33;;;;;;;12.57;7.60;;;;;;;11.21;59.05;101817.84;5199064;27;94663;-81
2024/04/11 03:16:00;;;;;;;16.52;6.90;;;;;;;11.12;59.38;101804.81;5180795;27;94737;-81
2024/04/11 03:18:29;;;;;;;12.02;7.82;;;;;;;11.15;59.39;101823.16;5234738;26;94638;-81
2024/04/11 03:20:56;;;;;;;12.45;7.05;;;;;;;10.89;59.57;101786.69;5232681;26;94738;-81
2024/04/11 03:23:22;;;;;;;11.30;7.25;;;;;;;10.92;59.38;101791.06;5231200;27;94780;-81
2024/04/11 03:25:48;;;;;;;10.27;6.95;;;;;;;11.08;59.26;101824.13;5207839;27;94672;-81
2024/04/11 03:28:14;;;;;;;12.25;8.18;;;;;;;10.94;60.09;101826.94;5222671;27;97710;-81
2024/04/11 03:30:41;;;;;;;15.18;8.15;;;;;;;11.05;59.63;101826.78;5229874;27;94664;-81
2024/04/11 03:33:07;;;;;;;11.27;6.45;;;;;;;11.04;59.55;101825.91;5234860;27;94717;-81
2024/04/11 03:35:32;;;;;;;13.75;7.55;;;;;;;10.85;59.29;101790.28;5205824;27;94759;-81
2024/04/11 03:37:58;;;;;;;14.38;7.75;;;;;;;11.01;59.62;101822.47;5196869;27;97685;-81
2024/04/11 03:40:24;;;;;;;10.27;6.43;;;;;;;10.91;59.57;101802.44;5235574;27;94677;-81
2024/04/11 03:42:50;;;;;;;15.30;9.05;;;;;;;10.94;59.74;101805.03;5229816;27;94655;-81
2024/04/11 03:45:22;;;;;;;13.77;8.27;;;;;;;10.88;59.54;101779.72;5236031;27;94727;-81
2024/04/11 03:47:51;;;;;;;11.80;7.60;;;;;;;10.98;59.98;101799.72;5179578;27;97644;-80
2024/04/11 03:50:17;;;;;;;17.45;7.55;;;;;;;11.10;59.72;101820.59;5230646;27;94765;-81
2024/04/11 03:52:42;;;;;;;12.48;7.40;;;;;;;10.83;60.42;101810.44;5230402;27;94718;-81
2024/04/11 03:55:12;;;;;;;11.55;6.90;;;;;;;10.78;60.25;101791.22;5232646;27;94700;-81
2024/04/11 03:57:38;;;;;;;19.27;7.70;;;;;;;10.99;60.09;101818.97;5231694;27;94831;-81
2024/04/11 04:00:07;;;;;;;12.00;6.93;;;;;;;10.97;60.33;101824.28;5234145;27;94697;-81
2024/04/11 04:02:37;;;;;;;14.68;7.60;;;;;;;11.01;60.07;101823.34;5225830;27;94884;-81
2024/04/11 04:05:03;;;;;;;12.50;7.10;;;;;;;11.01;60.02;101825.09;5210376;27;94608;-81
2024/04/11 04:07:29;;;;;;;11.85;6.50;;;;;;;11.01;59.78;101825.97;5201026;27;97735;-82
2024/04/11 04:09:56;;;;;;;13.50;7.47;;;;;;;10.92;60.02;101831.31;5230366;27;94910;-82
2024/04/11 04:12:23;;;;;;;15.80;8.02;;;;;;;11.02;59.84;101839.97;5174316;27;94661;-81
2024/04/11 04:14:49;;;;;;;16.23;7.90;;;;;;;11.03;59.38;101834.72;5206297;27;94755;-81
2024/04/11 04:17:16;;;;;;;22.02;8.48;;;;;;;11.05;59.62;101827.69;5174047;27;97210;-81
2024/04/11 04:19:42;;;;;;;16.38;7.57;;;;;;;11.05;59.52;101843.44;5172191;27;97415;-81
2024/04/11 04:22:13;;;;;;;13.70;8.70;;;;;;;11.15;59.81;101841.56;5233895;27;94847;-81
2024/04/11 04:24:39;;;;;;;17.45;8.40;;;;;;;11.12;59.15;101844.22;5203330;27;94669;-81
2024/04/11 04:27:06;;;;;;;15.60;7.90;;;;;;;11.18;58.82;101841.53;5232219;27;94700;-79
2024/04/11 04:29:33;;;;;;;15.43;7.68;;;;;;;11.01;58.98;101814.59;5232579;27;97516;-81
2024/04/11 04:31:58;;;;;;;14.52;7.03;;;;;;;11.17;58.78;101831.03;5231219;27;94793;-81
2024/04/11 04:34:25;;;;;;;14.00;8.18;;;;;;;11.19;58.56;101845.88;5225387;27;94777;-81
2024/04/11 04:36:51;;;;;;;13.40;7.35;;;;;;;11.23;58.68;101858.13;5224854;27;94272;-81
2024/04/11 04:39:16;;;;;;;16.92;8.55;;;;;;;11.32;58.53;101862.41;5229561;27;95053;-82
2024/04/11 04:41:43;;;;;;;15.18;8.35;;;;;;;11.43;58.34;101868.38;5225903;27;95453;-81
2024/04/11 04:44:08;;;;;;;13.80;8.20;;;;;;;11.38;58.21;101835.16;5232128;27;94675;-80
2024/04/11 04:46:34;;;;;;;14.30;8.00;;;;;;;11.69;57.75;101862.78;5203236;27;94746;-80
2024/04/11 04:49:02;;;;;;;14.48;8.02;;;;;;;11.65;57.36;101834.75;5228926;27;94890;-80
2024/04/11 04:51:28;;;;;;;13.85;7.68;;;;;;;11.89;57.18;101851.97;5228612;27;94794;-82
2024/04/11 04:53:54;;;;;;;19.02;8.60;;;;;;;12.19;56.70;101866.44;5231557;27;95175;-76
2024/04/11 04:56:23;;;;;;;14.85;7.35;;;;;;;12.29;56.50;101861.00;5226575;27;94723;-76
2024/04/11 04:58:49;;;;;;;20.05;8.70;;;;;;;12.52;55.99;101861.47;5229779;27;94586;-75
2024/04/11 05:01:15;;;;;;;14.93;7.10;;;;;;;12.69;55.55;101863.81;5203810;27;94751;-75
2024/04/11 05:03:43;;;;;;;14.27;7.55;;;;;;;12.62;55.98;101828.81;5206342;27;94686;-75
2024/04/11 05:06:09;;;;;;;12.38;6.60;;;;;;;13.04;55.34;101857.88;5201514;27;93740;-75
2024/04/11 05:08:35;;;;;;;20.15;7.80;;;;;;;13.11;54.67;101827.81;5226000;27;94761;-80
2024/04/11 05:11:10;;;;;;;15.82;7.65;;;;;;;13.47;54.40;101846.47;5205017;27;94659;-83
2024/04/11 05:13:40;;;;;;;14.52;8.07;;;;;;;13.95;53.63;101850.63;5233828;27;94689;-83
2024/04/11 05:16:07;;;;;;;17.65;7.38;;;;;;;14.39;52.68;101848.66;5200649;27;94662;-87
2024/04/11 05:18:37;;;;;;;14.70;6.68;;;;;;;15.12;50.69;101848.47;5203381;27;95065;-76
2024/04/11 05:21:12;;;;;;;12.25;7.30;;;;;;;16.01;48.62;101857.25;5232661;27;94734;-76
2024/04/11 05:23:42;;;;;;;18.90;9.02;;;;;;;16.69;47.27;101870.88;5234106;27;94564;-76
2024/04/11 05:26:14;;;;;;;12.00;6.03;;;;;;;17.33;45.72;101870.34;5233693;27;94515;-76
2024/04/11 05:28:47;;;;;;;13.20;6.22;;;;;;;17.70;44.74;101856.53;5226875;27;94700;-76
2024/04/11 05:31:25;;;;;;;10.00;5.90;;;;;;;18.23;43.67;101869.44;5233368;27;95051;-76
2024/04/11 05:33:53;;;;;;;11.35;6.95;;;;;;;18.76;42.28;101874.31;5207225;27;95481;-76
2024/04/11 05:36:25;;;;;;;15.63;6.32;;;;;;;19.28;41.29;101868.44;5206595;27;94707;-76
2024/04/11 05:38:54;;;;;;;9.68;5.85;;;;;;;19.61;39.64;101859.81;5205994;27;94891;-77
2024/04/11 05:41:20;;;;;;;9.50;5.70;;;;;;;19.86;39.86;101854.19;5201100;27;94829;-76
2024/04/11 05:43:49;;;;;;;10.93;5.95;;;;;;;20.28;39.78;101877.00;5226497;26;94659;-77
2024/04/11 05:46:18;;;;;;;14.95;6.78;;;;;;;20.15;39.60;101878.53;5206165;27;98750;-76
2024/04/11 05:48:44;;;;;;;10.95;6.40;;;;;;;21.19;38.52;101890.06;5195664;27;99970;-76
2024/04/11 05:51:10;;;;;;;12.30;6.28;;;;;;;21.93;36.71;101868.16;5234581;26;95126;-76
2024/04/11 05:53:40;;;;;;;12.95;6.32;;;;;;;22.76;35.22;101881.16;5236028;27;94809;-76
2024/04/11 05:56:07;;;;;;;17.15;6.38;;;;;;;22.56;36.46;101874.34;5206120;27;95387;-76
2024/04/11 05:58:33;;;;;;;10.82;5.70;;;;;;;23.17;34.82;101885.81;5235348;27;96116;-77
2024/04/11 06:01:01;;;;;;;13.07;6.18;;;;;;;23.13;35.14;101892.34;5234808;27;95233;-76
2024/04/11 06:03:30;;;;;;;17.75;7.03;;;;;;;22.42;35.94;101888.53;5230729;27;94954;-79
2024/04/11 06:05:56;;;;;;;13.05;6.45;;;;;;;22.95;34.96;101895.19;5230446;26;95471;-77
2024/04/11 06:08:22;;;;;;;7.80;5.65;;;;;;;24.03;33.42;101899.09;5231378;26;95388;-76
2024/04/11 06:10:48;;;;;;;12.23;6.03;;;;;;;24.32;33.42;101889.13;5193513;26;94840;-83
2024/04/11 06:13:14;;;;;;;10.38;4.78;;;;;;;23.89;35.10;101895.50;5209043;27;96455;-74
2024/04/11 06:15:42;;;;;;;8.63;5.78;;;;;;;25.29;32.71;101897.59;5228683;26;95462;-74
2024/04/11 06:18:09;;;;;;;14.93;6.32;;;;;;;27.71;29.38;101888.16;5233517;27;95650;-74
2024/04/11 06:20:38;;;;;;;16.38;5.78;;;;;;;29.65;26.98;101889.53;5228759;27;96765;-77
2024/04/11 06:23:15;;;;;;;15.70;6.43;;;;;;;30.87;25.37;101896.25;5200918;27;96230;-75
2024/04/11 06:25:42;;;;;;;11.35;5.40;;;;;;;31.63;24.22;101892.50;5203051;27;99868;-74
2024/04/11 06:28:11;;;;;;;7.57;5.20;;;;;;;32.00;23.80;101870.72;5205077;26;96046;-76
2024/04/11 06:30:38;;;;;;;10.23;6.25;;;;;;;33.17;23.30;101895.91;5227529;27;95396;-77
2024/04/11 06:33:10;;;;;;;8.90;5.00;;;;;;;33.56;21.94;101893.50;5206151;27;95752;-79
2024/04/11 06:35:36;;;;;;;10.45;5.28;;;;;;;33.95;22.03;101890.22;5201336;27;99042;-82
2024/04/11 06:38:05;;;;;;;11.60;5.57;;;;;;;35.20;21.18;101896.25;5171133;27;99706;-82
2024/04/11 06:40:35;;;;;;;16.80;6.03;;;;;;;36.24;20.32;101875.88;5202614;27;96675;-82
2024/04/11 06:43:03;;;;;;;9.88;5.90;;;;;;;36.78;18.95;101894.88;5206370;26;94863;-81
2024/04/11 06:45:30;;;;;;;20.42;18.42;;;;;;;36.56;19.23;101866.53;5228870;27;95039;-82
2024/04/11 06:47:56;;;;;;;15.93;14.35;;;;;;;34.87;19.82;101885.44;5225637;27;96340;-82
2024/04/11 06:50:23;;;;;;;14.77;13.55;;;;;;;34.45;20.89;101878.34;5222155;27;95058;-81
2024/04/11 06:52:49;;;;;;;15.77;11.18;;;;;;;37.37;18.75;101886.66;5221240;26;94885;-81
2024/04/11 06:55:15;;;;;;;12.45;5.05;;;;;;;36.88;18.21;101880.91;5195148;27;95465;-81
2024/04/11 06:57:44;;;;;;;10.00;4.47;;;;;;;37.18;18.89;101895.47;5233280;26;95450;-82
2024/04/11 07:00:35;;;;;;;11.40;5.67;;;;;;;38.16;17.77;101869.41;5205836;27;94805;-81
2024/04/11 07:03:16;;;;;;;8.98;4.80;;;;;;;37.40;18.53;101879.94;5220153;27;94864;-81
2024/04/11 07:05:57;;;;;;;7.28;4.20;;;;;;;38.97;17.11;101884.63;5155616;27;98417;-82
2024/04/11 07:08:31;;;;;;;7.60;4.47;;;;;;;40.68;15.37;101864.09;5219021;26;95560;-76
2024/04/11 07:13:58;;;;;;;9.98;5.50;;;;;;;43.40;14.54;101865.88;5194690;27;95304;-77
2024/04/11 07:16:32;;;;;;;9.65;4.47;;;;;;;44.55;13.53;101883.25;5232715;26;96115;-79
2024/04/11 07:18:58;;;;;;;8.30;4.55;;;;;;;45.47;13.43;101872.22;5229939;27;95395;-78
2024/04/11 07:21:25;;;;;;;18.55;17.02;;;;;;;43.97;13.26;101877.41;5232995;27;95269;-78
2024/04/11 07:23:55;;;;;;;23.58;18.67;;;;;;;46.00;12.66;101879.31;5233062;26;95347;-78
2024/04/11 07:26:29;;;;;;;9.07;7.50;;;;;;;45.63;12.57;101878.91;5230941;26;95353;-79
2024/04/11 07:28:55;;;;;;;9.00;8.10;;;;;;;46.21;12.10;101874.06;5203452;27;99347;-80
2024/04/11 07:31:21;;;;;;;10.02;6.13;;;;;;;47.39;11.87;101860.69;5232501;27;94747;-80
2024/04/11 07:33:48;;;;;;;10.77;7.55;;;;;;;48.00;11.33;101867.94;5199848;27;95969;-80
2024/04/11 07:36:16;;;;;;;18.55;16.42;;;;;;;45.53;12.21;101856.50;5221706;26;96177;-80
2024/04/11 07:38:43;;;;;;;10.57;8.43;;;;;;;47.40;10.86;101850.44;5226541;27;95931;-79
2024/04/11 07:41:17;;;;;;;10.95;7.97;;;;;;;46.32;11.92;101878.72;5229601;26;95353;-81
2024/04/11 07:43:55;;;;;;;8.25;6.82;;;;;;;49.00;10.73;101861.63;5222186;27;94864;-81
2024/04/11 07:46:33;;;;;;;11.57;8.30;;;;;;;47.96;10.76;101850.94;5207481;26;99470;-81
2024/04/11 07:48:59;;;;;;;10.40;6.35;;;;;;;48.42;10.28;101854.06;5230914;27;95404;-82
2024/04/11 07:51:26;;;;;;;7.53;6.13;;;;;;;50.10;10.00;101866.84;5232313;26;96767;-81
2024/04/11 07:53:51;;;;;;;40.15;36.40;;;;;;;47.04;10.60;101872.25;5229477;27;95299;-82
2024/04/11 07:56:20;;;;;;;29.50;27.17;;;;;;;49.43;10.17;101867.88;5230177;26;95297;-82
2024/04/11 07:58:50;;;;;;;6.43;5.80;;;;;;;49.29;10.49;101868.44;5199560;27;97831;-81
2024/04/11 08:01:16;;;;;;;6.30;4.60;;;;;;;52.32;9.02;101866.13;5179795;27;94944;-82
2024/04/11 08:03:45;;;;;;;7.35;3.17;;;;;;;52.19;8.46;101850.88;5201287;27;96200;-82
2024/04/11 08:06:11;;;;;;;2.53;2.20;;;;;;;54.24;7.50;101845.88;5226945;26;96146;-81
2024/04/11 08:08:37;;;;;;;2.28;2.08;;;;;;;54.50;7.67;101856.63;5229676;27;96562;-84
2024/04/11 08:11:02;;;;;;;4.47;2.90;;;;;;;52.35;8.68;101847.94;5187101;27;95255;-85
2024/04/11 08:13:30;;;;;;;5.45;4.95;;;;;;;52.67;8.74;101852.88;5226222;27;95509;-84
2024/04/11 08:15:56;;;;;;;9.68;8.98;;;;;;;55.21;7.44;101847.75;5228561;26;95492;-84
2024/04/11 08:18:22;;;;;;;4.50;3.08;;;;;;;55.21;7.05;101839.31;5199524;27;99662;-84
2024/04/11 08:20:48;;;;;;;4.57;3.08;;;;;;;49.26;9.90;101849.47;5228317;27;96074;-84
2024/04/11 08:23:17;;;;;;;5.68;2.95;;;;;;;53.59;8.25;101843.97;5229395;27;95704;-85
2024/04/11 08:25:42;;;;;;;5.38;3.53;;;;;;;55.06;7.82;101843.34;5222398;27;95396;-85
2024/04/11 08:28:11;;;;;;;5.03;3.50;;;;;;;55.27;7.18;101830.44;5222285;27;96116;-83
2024/04/11 08:30:36;;;;;;;17.55;16.10;;;;;;;57.97;6.29;101833.91;5223504;27;95751;-82
2024/04/11 08:33:09;;;;;;;15.75;14.55;;;;;;;56.26;6.80;101834.03;5232317;27;95455;-84
2024/04/11 08:35:35;;;;;;;16.30;15.20;;;;;;;57.57;6.37;101837.81;5230980;26;95202;-83
2024/04/11 08:38:03;;;;;;;18.60;17.50;;;;;;;57.64;6.59;101833.69;5230846;27;96696;-82
2024/04/11 08:40:30;;;;;;;;;;;;;;;59.42;5.52;101836.44;5228026;27;96204;-83
2024/04/11 08:42:56;;;;;;;19.35;18.15;;;;;;;59.04;5.69;101835.44;5199425;27;95577;-78
2024/04/11 08:45:23;;;;;;;37.97;34.80;;;;;;;55.62;6.30;101839.16;5229645;27;96172;-79
2024/04/11 08:47:50;;;;;;;5.25;4.85;;;;;;;52.40;7.51;101836.66;5227857;27;95970;-78
2024/04/11 08:50:16;;;;;;;6.70;5.20;;;;;;;54.97;7.22;101826.38;5231932;26;94776;-79
2024/04/11 08:52:46;;;;;;;8.57;4.20;;;;;;;49.18;8.89;101830.47;5218929;27;94871;-78
2024/04/11 08:55:15;;;;;;;8.15;3.67;;;;;;;47.27;10.21;101834.97;5198602;27;96494;-87
2024/04/11 08:57:45;;;;;;;35.97;32.35;;;;;;;47.81;10.15;101839.72;5199313;27;99796;-86
2024/04/11 09:00:21;;;;;;;6.15;4.68;;;;;;;54.17;7.42;101828.63;5221485;27;95426;-86
2024/04/11 09:02:48;;;;;;;4.20;3.90;;;;;;;57.28;6.34;101829.22;5199316;27;95220;-88
2024/04/11 09:05:16;;;;;;;6.47;5.45;;;;;;;58.95;6.14;101826.19;5195578;27;95756;-86
2024/04/11 09:07:45;;;;;;;15.20;13.88;;;;;;;48.12;9.52;101837.13;5229329;26;97491;-90
2024/04/11 09:10:16;;;;;;;12.32;8.30;;;;;;;42.24;12.65;101840.81;5232155;26;94789;-82
2024/04/11 09:12:42;;;;;;;16.30;14.93;;;;;;;39.72;14.07;101849.84;5175023;27;95053;-80
2024/04/11 09:15:11;;;;;;;10.02;9.02;;;;;;;37.97;15.95;101853.66;5234871;26;95377;-78
2024/04/11 09:17:40;;;;;;;13.18;10.55;;;;;;;35.62;16.97;101835.88;5227050;27;96117;-77
2024/04/11 09:20:12;;;;;;;7.20;5.82;;;;;;;34.49;18.29;101845.09;5229148;26;95051;-77
2024/04/11 09:22:46;;;;;;;4.45;2.53;;;;;;;37.96;15.71;101852.81;5233740;26;94766;-79
2024/04/11 09:25:12;;;;;;;3.28;2.33;;;;;;;45.30;11.56;101838.06;5230525;26;97107;-79
2024/04/11 09:27:38;;;;;;;8.43;2.10;;;;;;;49.68;9.43;101830.84;5230739;27;96091;-81
2024/04/11 09:30:06;;;;;;;6.53;1.95;;;;;;;39.14;14.83;101823.69;5206635;27;94741;-81
2024/04/11 09:32:36;;;;;;;5.13;2.13;;;;;;;38.25;16.10;101860.03;5236007;27;95366;-82
2024/04/11 09:35:05;;;;;;;9.23;2.10;;;;;;;38.72;15.08;101847.53;5207250;27;95588;-82
2024/04/11 09:37:32;;;;;;;7.93;1.80;;;;;;;38.79;14.01;101831.09;5235195;26;95701;-85
2024/04/11 09:40:11;;;;;;;4.72;2.10;;;;;;;38.42;14.87;101851.53;5207831;27;95379;-82
2024/04/11 09:42:39;;;;;;;7.25;1.73;;;;;;;37.49;16.63;101847.84;5211766;27;94896;-87
2024/04/11 09:45:10;;;;;;;3.38;1.70;;;;;;;35.72;17.64;101844.69;5215680;27;96161;-88
2024/04/11 09:47:38;;;;;;;2.85;1.65;;;;;;;34.73;18.60;101834.34;5231900;27;96223;-88
2024/04/11 09:50:05;;;;;;;2.75;1.20;;;;;;;34.33;18.35;101844.28;5208311;27;95677;-88
2024/04/11 09:52:34;;;;;;;1.88;1.20;;;;;;;32.42;19.48;101842.03;5208221;27;94887;-88
2024/04/11 09:55:04;;;;;;;4.93;1.50;;;;;;;31.28;19.89;101837.13;5180459;27;99331;-88
2024/04/11 09:57:33;;;;;;;3.42;1.48;;;;;;;31.47;19.79;101817.19;5207502;27;99771;-89
2024/04/11 10:00:09;;;;;;;5.47;2.03;;;;;;;29.85;20.79;101832.75;5180594;27;94786;-88
2024/04/11 10:02:41;;;;;;;2.33;1.20;;;;;;;28.63;21.92;101839.97;5213377;27;94754;-89
2024/04/11 10:05:08;;;;;;;1.30;1.08;;;;;;;28.49;22.43;101824.94;5180645;27;97905;-87
2024/04/11 10:07:41;;;;;;;4.93;3.50;;;;;;;27.72;23.04;101817.91;5207211;27;96232;-89
2024/04/11 10:10:19;;;;;;;4.10;1.70;;;;;;;27.33;23.84;101837.38;5236185;26;94743;-88
2024/04/11 10:12:48;;;;;;;3.00;1.58;;;;;;;27.29;25.49;101831.38;5235294;26;94870;-89
2024/04/11 10:15:18;;;;;;;7.85;1.50;;;;;;;27.74;24.31;101847.44;5235592;27;96272;-88
2024/04/11 10:18:03;;;;;;;10.23;9.32;;;;;;;26.61;24.70;101839.38;5236108;27;96458;-85
2024/04/11 10:20:43;;;;;;;10.32;8.40;;;;;;;27.19;24.77;101846.56;5216517;26;94797;-88
2024/04/11 10:23:09;;;;;;;13.35;12.40;;;;;;;25.99;24.69;101822.66;5236736;26;94813;-89
2024/04/11 10:25:39;;;;;;;15.82;14.60;;;;;;;26.54;24.49;101831.91;5235241;27;95429;-89
2024/04/11 10:28:18;;;;;;;10.48;9.77;;;;;;;27.23;24.88;101830.03;5235623;27;96706;-89
2024/04/11 10:30:50;;;;;;;11.40;10.02;;;;;;;26.79;24.53;101842.50;5236490;26;94789;-88
2024/04/11 10:33:29;;;;;;;9.75;9.15;;;;;;;26.26;25.26;101835.84;5209423;27;94845;-89
2024/04/11 10:35:56;;;;;;;10.05;9.27;;;;;;;25.83;24.76;101836.41;5235359;27;97263;-89
2024/04/11 10:38:27;;;;;;;9.70;8.95;;;;;;;25.73;24.96;101833.50;5236245;27;96565;-90
2024/04/11 10:40:56;;;;;;;11.07;10.10;;;;;;;25.56;25.79;101834.75;5235990;27;94973;-89
2024/04/11 10:43:24;;;;;;;24.00;22.10;;;;;;;25.20;26.20;101814.97;5235756;26;94979;-88
2024/04/11 10:45:52;;;;;;;3.75;1.45;;;;;;;25.28;26.06;101814.44;5234659;27;96215;-88
2024/04/11 10:48:18;;;;;;;4.25;1.45;;;;;;;25.23;26.15;101790.56;5236947;26;96511;-89
2024/04/11 10:50:44;;;;;;;7.25;1.67;;;;;;;24.71;26.23;101813.06;5235506;27;94744;-88
2024/04/11 10:53:12;;;;;;;5.03;1.52;;;;;;;24.37;27.65;101823.41;5236918;26;94770;-88
2024/04/11 10:55:38;;;;;;;7.47;1.45;;;;;;;23.84;27.93;101805.59;5208371;27;97116;-89
2024/04/11 10:58:13;;;;;;;2.58;1.92;;;;;;;24.02;27.29;101790.94;5237522;27;95487;-88
2024/04/11 11:03:42;;;;;;;5.22;4.45;;;;;;;25.23;27.95;101813.91;5236546;27;94760;-86
2024/04/11 11:06:14;;;;;;;11.23;8.60;;;;;;;24.99;28.79;101819.19;5180647;27;99857;-88
2024/04/11 11:08:42;;;;;;;6.05;5.38;;;;;;;25.24;28.92;101819.16;5208050;27;99543;-87
2024/04/11 11:11:14;;;;;;;8.68;5.57;;;;;;;24.63;29.05;101808.22;5236968;26;95340;-88
2024/04/11 11:13:47;;;;;;;4.90;4.50;;;;;;;24.68;29.04;101799.00;5236232;27;94878;-87
2024/04/11 11:16:21;;;;;;;10.23;4.28;;;;;;;24.42;29.45;101811.53;5205749;27;98183;-87
2024/04/11 11:18:52;;;;;;;6.82;5.30;;;;;;;23.97;28.23;101793.09;5210318;27;99363;-87
2024/04/11 11:21:25;;;;;;;28.48;25.40;;;;;;;23.72;28.89;101791.19;5171197;27;94697;-87
2024/04/11 11:24:00;;;;;;;9.57;5.93;;;;;;;23.95;29.19;101817.31;5237083;26;94892;-87
2024/04/11 11:26:36;;;;;;;6.13;5.63;;;;;;;23.87;28.54;101800.03;5234176;27;95893;-87
2024/04/11 11:29:09;;;;;;;6.00;1.42;;;;;;;23.82;27.35;101781.56;5235032;27;96664;-87
2024/04/11 11:31:36;;;;;;;3.80;1.05;;;;;;;22.68;28.45;101785.28;5235027;27;95090;-87